createdAt,value
2022-12-15T00:01:34.346Z,80
2022-12-15T00:04:05.154Z,80
2022-12-15T00:06:35.885Z,80
2022-12-15T00:09:11.209Z,80
2022-12-15T00:11:37.469Z,79
2022-12-15T00:14:08.322Z,79
2022-12-15T00:16:38.760Z,80
2022-12-15T00:19:09.633Z,79
2022-12-15T00:21:39.863Z,79
2022-12-15T00:24:11.220Z,79
2022-12-15T00:26:41.919Z,79
2022-12-15T00:29:12.671Z,79
2022-12-15T00:31:44.212Z,79
2022-12-15T00:34:15.070Z,79
2022-12-15T00:36:46.055Z,79
2022-12-15T00:39:17.181Z,79
2022-12-15T00:41:47.674Z,79
2022-12-15T00:44:20.679Z,79
2022-12-15T00:46:49.612Z,79
2022-12-15T00:49:20.287Z,79
2022-12-15T00:51:52.018Z,80
2022-12-15T00:54:23.133Z,79
2022-12-15T00:56:55.000Z,80
2022-12-15T00:59:26.752Z,79
2022-12-15T01:01:58.282Z,79
2022-12-15T01:04:28.112Z,79
2022-12-15T01:06:58.953Z,79
2022-12-15T01:09:31.119Z,79
2022-12-15T01:12:03.342Z,78
2022-12-15T01:14:34.340Z,79
2022-12-15T01:17:05.996Z,79
2022-12-15T01:19:36.392Z,79
2022-12-15T01:22:07.567Z,79
2022-12-15T01:24:38.300Z,79
2022-12-15T01:27:08.666Z,79
2022-12-15T01:29:39.259Z,79
2022-12-15T01:32:10.624Z,79
2022-12-15T01:34:42.021Z,79
2022-12-15T01:37:13.066Z,79
2022-12-15T01:39:43.954Z,79
2022-12-15T01:42:14.907Z,78
2022-12-15T01:44:45.902Z,78
2022-12-15T01:47:17.115Z,78
2022-12-15T01:49:47.091Z,78
2022-12-15T01:52:17.534Z,77
2022-12-15T01:54:49.114Z,77
2022-12-15T01:57:20.020Z,78
2022-12-15T01:59:50.861Z,78
2022-12-15T02:02:21.671Z,78
2022-12-15T02:04:52.419Z,78
2022-12-15T02:07:21.762Z,78
2022-12-15T02:09:52.926Z,78
2022-12-15T02:12:25.007Z,78
2022-12-15T02:14:56.329Z,77
2022-12-15T02:17:27.196Z,77
2022-12-15T02:19:57.825Z,77
2022-12-15T02:22:29.050Z,78
2022-12-15T02:24:59.812Z,77
2022-12-15T02:27:31.905Z,77
2022-12-15T02:30:02.323Z,77
2022-12-15T02:32:33.640Z,77
2022-12-15T02:35:05.217Z,78
2022-12-15T02:37:36.052Z,77
2022-12-15T02:40:06.998Z,77
2022-12-15T02:42:37.949Z,77
2022-12-15T02:45:06.870Z,77
2022-12-15T02:47:37.999Z,77
2022-12-15T02:50:08.800Z,77
2022-12-15T02:52:39.698Z,77
2022-12-15T02:55:10.604Z,77
2022-12-15T02:57:41.514Z,77
2022-12-15T03:00:12.670Z,77
2022-12-15T03:02:43.378Z,77
2022-12-15T03:05:13.954Z,77
2022-12-15T03:07:44.555Z,77
2022-12-15T03:10:17.199Z,77
2022-12-15T03:12:48.082Z,77
2022-12-15T03:15:18.882Z,77
2022-12-15T03:17:49.502Z,77
2022-12-15T03:20:20.627Z,77
2022-12-15T03:22:51.572Z,77
2022-12-15T03:25:22.469Z,77
2022-12-15T03:27:51.848Z,76
2022-12-15T03:30:23.809Z,76
2022-12-15T03:32:55.472Z,76
2022-12-15T03:35:27.027Z,76
2022-12-15T03:38:01.917Z,76
2022-12-15T03:40:33.296Z,76
2022-12-15T03:43:03.973Z,76
2022-12-15T03:45:35.856Z,76
2022-12-15T03:48:07.298Z,75
2022-12-15T03:50:38.666Z,76
2022-12-15T03:53:09.357Z,76
2022-12-15T03:55:39.759Z,76
2022-12-15T03:58:10.904Z,75
2022-12-15T04:00:42.280Z,75
2022-12-15T04:03:13.271Z,75
2022-12-15T04:05:45.978Z,75
2022-12-15T04:08:16.689Z,75
2022-12-15T04:10:48.385Z,75
2022-12-15T04:13:19.227Z,75
2022-12-15T04:15:52.055Z,75
2022-12-15T04:18:23.167Z,75
2022-12-15T04:20:54.372Z,75
2022-12-15T04:23:26.128Z,74
2022-12-15T04:25:58.215Z,74
2022-12-15T04:28:28.976Z,74
2022-12-15T04:30:59.673Z,74
2022-12-15T04:33:33.889Z,74
2022-12-15T04:36:03.730Z,75
2022-12-15T04:38:34.420Z,75
2022-12-15T04:41:04.985Z,75
2022-12-15T04:43:35.783Z,75
2022-12-15T04:46:06.993Z,75
2022-12-15T04:48:38.008Z,75
2022-12-15T04:51:08.792Z,75
2022-12-15T04:53:43.926Z,76
2022-12-15T04:56:18.555Z,75
2022-12-15T04:58:46.850Z,75
2022-12-15T05:01:18.353Z,75
2022-12-15T05:03:49.534Z,75
2022-12-15T05:06:20.279Z,75
2022-12-15T05:08:50.601Z,74
2022-12-15T05:11:22.959Z,75
2022-12-15T05:13:54.224Z,75
2022-12-15T05:16:25.486Z,75
2022-12-15T05:18:56.171Z,75
2022-12-15T05:21:27.132Z,75
2022-12-15T05:23:58.259Z,75
2022-12-15T05:26:29.114Z,74
2022-12-15T05:28:59.693Z,74
2022-12-15T05:31:31.890Z,75
2022-12-15T05:34:05.623Z,74
2022-12-15T05:36:33.818Z,75
2022-12-15T05:39:04.331Z,75
2022-12-15T05:41:35.771Z,75
2022-12-15T05:44:06.160Z,75
2022-12-15T05:46:37.423Z,74
2022-12-15T05:49:08.526Z,74
2022-12-15T05:51:39.539Z,74
2022-12-15T05:54:10.828Z,74
2022-12-15T05:56:42.491Z,75
2022-12-15T05:59:17.020Z,75
2022-12-15T06:01:48.686Z,75
2022-12-15T06:04:20.573Z,74
2022-12-15T06:06:51.839Z,75
2022-12-15T06:09:23.023Z,75
2022-12-15T06:11:53.481Z,75
2022-12-15T06:14:22.518Z,75
2022-12-15T06:16:55.209Z,75
2022-12-15T06:19:27.224Z,75
2022-12-15T06:21:59.617Z,75
2022-12-15T06:24:30.800Z,76
2022-12-15T06:27:01.933Z,76
2022-12-15T06:29:33.227Z,75
2022-12-15T06:32:04.138Z,75
2022-12-15T06:34:34.933Z,75
2022-12-15T06:37:05.433Z,74
2022-12-15T06:39:36.433Z,74
2022-12-15T06:42:07.179Z,74
2022-12-15T06:44:37.995Z,74
2022-12-15T06:47:09.532Z,74
2022-12-15T06:49:40.371Z,74
2022-12-15T06:52:11.381Z,74
2022-12-15T06:54:42.155Z,75
2022-12-15T06:57:13.345Z,74
2022-12-15T06:59:47.970Z,74
2022-12-15T07:02:22.408Z,75
2022-12-15T07:04:48.991Z,76
2022-12-15T07:07:21.107Z,75
2022-12-15T07:09:51.745Z,75
2022-12-15T07:12:22.504Z,74
2022-12-15T07:14:53.906Z,74
2022-12-15T07:17:24.150Z,74
2022-12-15T07:19:54.708Z,74
2022-12-15T07:22:25.341Z,74
2022-12-15T07:24:55.800Z,74
2022-12-15T07:27:26.224Z,73
2022-12-15T07:29:56.853Z,73
2022-12-15T07:32:26.948Z,73
2022-12-15T07:34:57.785Z,73
2022-12-15T07:37:29.146Z,73
2022-12-15T07:40:00.120Z,73
2022-12-15T07:42:30.596Z,72
2022-12-15T07:45:00.733Z,72
2022-12-15T07:47:32.916Z,73
2022-12-15T07:50:03.306Z,72
2022-12-15T07:52:35.328Z,72
2022-12-15T07:55:07.028Z,72
2022-12-15T07:57:38.442Z,73
2022-12-15T08:00:11.743Z,72
2022-12-15T08:02:42.890Z,72
2022-12-15T08:05:13.365Z,72
2022-12-15T08:07:44.142Z,73
2022-12-15T08:10:14.829Z,72
2022-12-15T08:12:45.143Z,72
2022-12-15T08:15:16.120Z,72
2022-12-15T08:17:46.623Z,72
2022-12-15T08:20:17.490Z,72
2022-12-15T08:22:50.057Z,72
2022-12-15T08:25:20.611Z,71
2022-12-15T08:27:51.232Z,71
2022-12-15T08:30:22.458Z,71
2022-12-15T08:32:53.242Z,71
2022-12-15T08:35:47.298Z,71
2022-12-15T08:37:53.945Z,71
2022-12-15T08:40:24.877Z,71
2022-12-15T08:42:55.486Z,71
2022-12-15T08:45:24.629Z,71
2022-12-15T08:47:55.299Z,71
2022-12-15T08:50:25.861Z,71
2022-12-15T08:53:21.738Z,71
2022-12-15T08:55:28.140Z,70
2022-12-15T08:57:59.593Z,70
2022-12-15T09:00:30.893Z,70
2022-12-15T09:03:02.005Z,71
2022-12-15T09:05:33.801Z,71
2022-12-15T09:08:06.806Z,70
2022-12-15T09:10:36.139Z,71
2022-12-15T09:13:06.783Z,71
2022-12-15T09:16:07.438Z,71
2022-12-15T09:18:12.550Z,70
2022-12-15T09:20:44.300Z,70
2022-12-15T09:23:15.524Z,70
2022-12-15T09:25:46.081Z,70
2022-12-15T09:28:17.759Z,70
2022-12-15T09:30:49.383Z,70
2022-12-15T09:33:20.796Z,70
2022-12-15T09:35:51.244Z,69
2022-12-15T09:38:22.014Z,70
2022-12-15T09:40:52.487Z,70
2022-12-15T09:43:41.555Z,70
2022-12-15T09:45:53.347Z,70
2022-12-15T09:48:23.663Z,70
2022-12-15T09:50:55.673Z,70
2022-12-15T09:53:53.975Z,70
2022-12-15T09:55:59.322Z,69
2022-12-15T09:58:31.279Z,69
2022-12-15T10:01:02.110Z,69
2022-12-15T10:03:33.316Z,69
2022-12-15T10:06:15.846Z,70
2022-12-15T10:08:35.100Z,69
2022-12-15T10:11:05.314Z,69
2022-12-15T10:13:35.930Z,70
2022-12-15T10:16:06.662Z,69
2022-12-15T10:18:37.407Z,69
2022-12-15T10:21:08.008Z,69
2022-12-15T10:23:38.532Z,69
2022-12-15T10:26:09.013Z,69
2022-12-15T10:28:39.195Z,69
2022-12-15T10:31:10.376Z,68
2022-12-15T10:33:47.006Z,68
2022-12-15T10:36:13.702Z,68
2022-12-15T10:38:44.749Z,68
2022-12-15T10:41:15.484Z,68
2022-12-15T10:43:47.636Z,68
2022-12-15T10:46:18.280Z,68
2022-12-15T10:48:49.253Z,68
2022-12-15T10:51:19.782Z,68
2022-12-15T10:53:50.411Z,68
2022-12-15T10:56:18.927Z,67
2022-12-15T10:58:50.099Z,67
2022-12-15T11:01:20.095Z,66
2022-12-15T11:03:50.997Z,67
2022-12-15T11:06:22.392Z,66
2022-12-15T11:08:54.244Z,66
2022-12-15T11:11:26.236Z,66
2022-12-15T11:13:55.134Z,66
2022-12-15T11:16:25.857Z,66
2022-12-15T11:18:56.756Z,66
2022-12-15T11:21:27.630Z,65
2022-12-15T11:23:58.182Z,66
2022-12-15T11:26:28.440Z,65
2022-12-15T11:28:59.468Z,65
2022-12-15T11:31:35.989Z,66
2022-12-15T11:34:06.661Z,66
2022-12-15T11:36:39.148Z,65
2022-12-15T11:39:10.353Z,65
2022-12-15T11:41:42.118Z,65
2022-12-15T11:44:12.276Z,65
2022-12-15T11:46:45.765Z,65
2022-12-15T11:49:16.838Z,65
2022-12-15T11:51:49.104Z,65
2022-12-15T11:54:18.766Z,65
2022-12-15T11:56:49.461Z,65
2022-12-15T11:59:20.682Z,65
2022-12-15T12:01:55.601Z,65
2022-12-15T12:04:22.199Z,65
2022-12-15T12:06:53.390Z,65
2022-12-15T12:09:24.526Z,65
2022-12-15T12:11:54.993Z,64
2022-12-15T12:14:25.195Z,65
2022-12-15T12:16:55.732Z,65
2022-12-15T12:19:28.034Z,64
2022-12-15T12:21:58.910Z,64
2022-12-15T12:24:29.661Z,64
2022-12-15T12:27:00.292Z,64
2022-12-15T12:29:31.098Z,64
2022-12-15T12:32:04.719Z,64
2022-12-15T12:34:31.887Z,64
2022-12-15T12:37:02.791Z,65
2022-12-15T12:39:34.910Z,64
2022-12-15T12:42:05.458Z,64
2022-12-15T12:44:36.031Z,65
2022-12-15T12:47:07.440Z,64
2022-12-15T12:49:39.410Z,64
2022-12-15T12:52:11.372Z,65
2022-12-15T12:54:42.390Z,64
2022-12-15T12:57:14.012Z,64
2022-12-15T12:59:44.771Z,64
2022-12-15T13:02:16.531Z,64
2022-12-15T13:04:47.126Z,64
2022-12-15T13:07:19.807Z,64
2022-12-15T13:09:51.692Z,64
2022-12-15T13:12:50.419Z,64
2022-12-15T13:14:53.387Z,64
2022-12-15T13:17:26.849Z,64
2022-12-15T13:19:56.463Z,65
2022-12-15T13:22:27.792Z,65
2022-12-15T13:25:00.357Z,65
2022-12-15T13:27:33.348Z,65
2022-12-15T13:30:04.776Z,65
2022-12-15T13:32:36.481Z,66
2022-12-15T13:35:06.976Z,66
2022-12-15T13:37:38.113Z,66
2022-12-15T13:40:09.129Z,66
2022-12-15T13:42:52.852Z,65
2022-12-15T13:45:12.325Z,66
2022-12-15T13:47:44.383Z,65
2022-12-15T13:50:16.902Z,65
2022-12-15T13:55:24.170Z,65
2022-12-15T13:57:50.958Z,65
2022-12-15T14:00:22.410Z,65
2022-12-15T14:02:53.927Z,65
2022-12-15T14:05:25.375Z,65
2022-12-15T14:07:56.834Z,66
2022-12-15T14:10:27.931Z,66
2022-12-15T14:12:59.241Z,66
2022-12-15T14:15:30.544Z,66
2022-12-15T14:18:01.448Z,66
2022-12-15T14:20:32.713Z,67
2022-12-15T14:23:04.442Z,66
2022-12-15T14:25:37.646Z,66
2022-12-15T14:28:12.151Z,67
2022-12-15T14:30:42.085Z,67
2022-12-15T14:33:13.348Z,67
2022-12-15T14:35:49.355Z,67
2022-12-15T14:38:17.828Z,67
2022-12-15T14:40:49.962Z,67
2022-12-15T14:43:21.438Z,67
2022-12-15T14:45:52.494Z,68
2022-12-15T14:48:40.869Z,68
2022-12-15T14:50:56.264Z,68
2022-12-15T14:53:27.655Z,68
2022-12-15T14:55:59.530Z,68
2022-12-15T14:58:31.943Z,68
2022-12-15T15:01:02.458Z,68
2022-12-15T15:03:34.348Z,68
2022-12-15T15:06:05.867Z,69
2022-12-15T15:08:37.571Z,69
2022-12-15T15:11:07.144Z,69
2022-12-15T15:13:39.930Z,69
2022-12-15T15:16:11.187Z,69
2022-12-15T15:18:42.648Z,69
2022-12-15T15:21:15.492Z,69
2022-12-15T15:23:47.221Z,70
2022-12-15T15:26:18.480Z,70
2022-12-15T15:28:49.822Z,70
2022-12-15T15:31:21.710Z,70
2022-12-15T15:33:53.079Z,70
2022-12-15T15:36:24.809Z,70
2022-12-15T15:38:56.577Z,70
2022-12-15T15:41:27.591Z,70
2022-12-15T15:43:59.732Z,70
2022-12-15T15:46:30.917Z,71
2022-12-15T15:49:02.228Z,71
2022-12-15T15:51:33.658Z,72
2022-12-15T15:54:05.060Z,72
2022-12-15T15:56:36.191Z,72
2022-12-15T15:59:09.358Z,71
2022-12-15T16:01:39.945Z,72
2022-12-15T16:04:11.599Z,72
2022-12-15T16:06:47.203Z,72
2022-12-15T16:09:14.530Z,72
2022-12-15T16:11:47.162Z,72
2022-12-15T16:14:19.921Z,72
2022-12-15T16:16:50.806Z,72
2022-12-15T16:19:22.293Z,72
2022-12-15T16:21:54.539Z,72
2022-12-15T16:24:25.800Z,72
2022-12-15T16:26:56.702Z,73
2022-12-15T16:29:30.842Z,72
2022-12-15T16:32:02.888Z,73
2022-12-15T16:34:34.879Z,73
2022-12-15T16:37:06.894Z,73
2022-12-15T16:39:40.074Z,73
2022-12-15T16:42:11.824Z,73
2022-12-15T16:44:42.815Z,73
2022-12-15T16:47:14.475Z,73
2022-12-15T16:49:45.727Z,73
2022-12-15T16:52:16.597Z,74
2022-12-15T16:54:47.846Z,74
2022-12-15T16:57:20.362Z,73
2022-12-15T16:59:52.005Z,73
2022-12-15T17:02:24.684Z,73
2022-12-15T17:04:56.056Z,74
2022-12-15T17:07:27.457Z,73
2022-12-15T17:09:59.195Z,73
2022-12-15T17:12:31.874Z,74
2022-12-15T17:15:03.376Z,74
2022-12-15T17:17:34.697Z,74
2022-12-15T17:22:38.034Z,74
2022-12-15T17:25:09.312Z,74
2022-12-15T17:27:40.611Z,74
2022-12-15T17:30:11.849Z,74
2022-12-15T17:32:42.713Z,74
2022-12-15T17:35:14.957Z,73
2022-12-15T17:37:46.394Z,73
2022-12-15T17:40:20.503Z,74
2022-12-15T17:42:51.832Z,74
2022-12-15T17:45:24.379Z,74
2022-12-15T17:47:56.210Z,74
2022-12-15T17:50:27.403Z,75
2022-12-15T17:52:59.488Z,75
2022-12-15T17:55:35.167Z,75
2022-12-15T17:58:03.206Z,75
2022-12-15T18:00:35.907Z,75
2022-12-15T18:03:08.202Z,75
2022-12-15T18:05:40.261Z,75
2022-12-15T18:08:11.853Z,75
2022-12-15T18:10:42.963Z,74
2022-12-15T18:13:14.659Z,75
2022-12-15T18:15:45.726Z,75
2022-12-15T18:18:16.679Z,75
2022-12-15T18:20:47.940Z,75
2022-12-15T18:23:19.732Z,75
2022-12-15T18:25:51.119Z,76
2022-12-15T18:28:22.234Z,75
2022-12-15T18:30:53.214Z,75
2022-12-15T18:33:27.349Z,75
2022-12-15T18:36:00.498Z,75
2022-12-15T18:38:32.112Z,74
2022-12-15T18:41:03.487Z,74
2022-12-15T18:43:36.012Z,75
2022-12-15T18:46:07.436Z,75
2022-12-15T18:48:38.718Z,75
2022-12-15T18:51:10.730Z,75
2022-12-15T18:53:42.478Z,75
2022-12-15T18:56:13.246Z,75
2022-12-15T18:58:45.480Z,75
2022-12-15T19:01:17.160Z,75
2022-12-15T19:03:49.253Z,76
2022-12-15T19:06:25.424Z,76
2022-12-15T19:08:51.661Z,76
2022-12-15T19:11:23.760Z,75
2022-12-15T19:13:54.663Z,76
2022-12-15T19:16:25.828Z,75
2022-12-15T19:18:57.228Z,75
2022-12-15T19:21:28.062Z,75
2022-12-15T19:24:00.255Z,76
2022-12-15T19:26:31.669Z,75
2022-12-15T19:29:01.046Z,75
2022-12-15T19:31:32.599Z,75
2022-12-15T19:34:03.971Z,75
2022-12-15T19:36:36.938Z,75
2022-12-15T19:39:06.319Z,76
2022-12-15T19:41:38.121Z,76
2022-12-15T19:44:09.290Z,77
2022-12-15T19:46:41.267Z,77
2022-12-15T19:49:13.187Z,77
2022-12-15T19:51:44.768Z,77
2022-12-15T19:54:17.727Z,77
2022-12-15T19:56:49.041Z,77
2022-12-15T19:59:20.960Z,77
2022-12-15T20:01:52.401Z,77
2022-12-15T20:04:24.438Z,77
2022-12-15T20:06:55.062Z,77
2022-12-15T20:09:26.111Z,76
2022-12-15T20:11:57.316Z,75
2022-12-15T20:14:30.343Z,75
2022-12-15T20:17:01.768Z,76
2022-12-15T20:19:33.029Z,76
2022-12-15T20:22:05.493Z,76
2022-12-15T20:24:37.566Z,76
2022-12-15T20:27:11.722Z,77
2022-12-15T20:29:39.996Z,77
2022-12-15T20:32:12.479Z,77
2022-12-15T20:34:47.441Z,77
2022-12-15T20:37:20.049Z,76
2022-12-15T20:39:57.096Z,76
2022-12-15T20:42:24.125Z,76
2022-12-15T20:44:56.508Z,77
2022-12-15T20:47:27.727Z,77
2022-12-15T20:50:04.294Z,77
2022-12-15T20:52:38.560Z,77
2022-12-15T20:55:09.954Z,77
2022-12-15T20:57:42.134Z,77
2022-12-15T21:00:19.957Z,78
2022-12-15T21:02:51.866Z,77
2022-12-15T21:05:23.905Z,78
2022-12-15T21:07:56.284Z,78
2022-12-15T21:10:27.718Z,78
2022-12-15T21:12:57.539Z,78
2022-12-15T21:15:31.036Z,78
2022-12-15T21:18:40.527Z,79
2022-12-15T21:20:34.774Z,79
2022-12-15T21:23:06.417Z,79
2022-12-15T21:25:37.844Z,79
2022-12-15T21:28:09.221Z,78
2022-12-15T21:30:40.346Z,78
2022-12-15T21:33:11.926Z,78
2022-12-15T21:35:44.151Z,78
2022-12-15T21:38:18.858Z,77
2022-12-15T21:40:56.062Z,77
2022-12-15T21:43:22.734Z,77
2022-12-15T21:45:55.384Z,77
2022-12-15T21:48:31.873Z,77
2022-12-15T21:51:03.302Z,76
2022-12-15T21:53:34.986Z,77
2022-12-15T21:56:08.079Z,77
2022-12-15T21:58:39.692Z,77
2022-12-15T22:01:10.912Z,77
2022-12-15T22:03:42.563Z,77
2022-12-15T22:06:14.892Z,77
2022-12-15T22:08:46.270Z,77
2022-12-15T22:11:18.022Z,76
2022-12-15T22:13:52.692Z,76
2022-12-15T22:16:24.217Z,76
2022-12-15T22:18:56.420Z,76
2022-12-15T22:21:27.672Z,76
2022-12-15T22:24:00.590Z,76
2022-12-15T22:26:32.198Z,76
2022-12-15T22:29:03.836Z,76
2022-12-15T22:31:35.140Z,76
2022-12-15T22:34:06.340Z,76
2022-12-15T22:36:38.026Z,76
2022-12-15T22:39:09.150Z,75
2022-12-15T22:41:40.388Z,76
2022-12-15T22:44:14.037Z,75
2022-12-15T22:46:45.730Z,75
2022-12-15T22:49:17.144Z,75
2022-12-15T22:51:49.284Z,75
2022-12-15T22:54:20.363Z,75
2022-12-15T22:56:51.909Z,75
2022-12-15T22:59:23.527Z,75
2022-12-15T23:01:55.225Z,75
2022-12-15T23:04:26.687Z,75
2022-12-15T23:07:00.659Z,75
2022-12-15T23:09:51.370Z,75
2022-12-15T23:15:21.381Z,75
2022-12-15T23:17:50.722Z,75
2022-12-15T23:20:30.734Z,74
2022-12-15T23:23:04.661Z,74
2022-12-15T23:28:16.112Z,74
2022-12-15T23:30:52.665Z,74
2022-12-15T23:33:32.396Z,74
2022-12-15T23:36:05.861Z,74
2022-12-15T23:38:40.595Z,74
2022-12-15T23:41:11.528Z,74
2022-12-15T23:43:40.663Z,74
2022-12-15T23:46:11.712Z,74
2022-12-15T23:48:42.209Z,74
2022-12-15T23:51:13.198Z,74
2022-12-15T23:53:44.520Z,74
2022-12-15T23:56:15.593Z,74
2022-12-15T23:58:47.249Z,74
